Time;durP1;ratioP1;P1;durP2;ratioP2;P2;SDS_P1;SDS_P2;PMS_P1;PMS_P2;Temp;Humidity;BMP_temperature;BMP_pressure;BME280_temperature;BME280_humidity;BME280_pressure;Samples;Min_cycle;Max_cycle;Signal;HPM_P1;HPM_P2
2022/10/22 00:02:24;;;;;;;;;3.00;2.33;;;;;16.29;71.18;100518.34;5050856;28;45606;-66
2022/10/22 00:04:50;;;;;;;;;2.00;2.00;;;;;16.22;71.35;100531.78;5050935;28;45822;-66
2022/10/22 00:07:17;;;;;;;;;5.67;2.00;;;;;16.25;71.03;100531.69;5051253;28;45534;-72
2022/10/22 00:09:43;;;;;;;;;2.00;2.00;;;;;16.26;71.50;100549.28;5056736;28;46406;-68
2022/10/22 00:12:09;;;;;;;;;2.00;2.00;;;;;16.22;71.40;100547.63;5054328;28;45482;-72
2022/10/22 00:14:35;;;;;;;;;2.33;1.67;;;;;16.19;71.32;100538.00;5053918;28;45430;-71
2022/10/22 00:17:01;;;;;;;;;4.00;3.67;;;;;16.20;71.23;100549.44;5052546;28;45479;-71
2022/10/22 00:19:27;;;;;;;;;1.33;1.33;;;;;16.22;71.56;100553.78;5052129;28;46796;-71
2022/10/22 00:21:53;;;;;;;;;3.00;1.00;;;;;16.08;71.63;100525.03;5053644;28;45272;-71
2022/10/22 00:24:19;;;;;;;;;3.00;3.00;;;;;16.28;71.26;100558.91;5051815;28;45370;-72
2022/10/22 00:26:45;;;;;;;;;3.00;3.00;;;;;16.24;71.56;100553.75;5054201;28;45416;-70
2022/10/22 00:29:10;;;;;;;;;2.67;1.33;;;;;16.18;71.30;100554.75;5053716;28;45710;-74
2022/10/22 00:31:36;;;;;;;;;2.67;2.00;;;;;16.21;71.59;100564.41;5057717;28;45533;-72
2022/10/22 00:34:04;;;;;;;;;2.33;1.00;;;;;16.16;71.44;100553.94;5057912;28;45463;-70
2022/10/22 00:36:30;;;;;;;;;2.00;1.33;;;;;16.26;71.13;100573.94;5056558;28;45666;-70
2022/10/22 00:38:56;;;;;;;;;2.00;2.00;;;;;16.21;70.90;100551.19;5054105;28;46034;-70
2022/10/22 00:41:21;;;;;;;;;3.00;2.33;;;;;16.26;71.38;100566.00;5052723;28;45612;-69
2022/10/22 00:43:59;;;;;;;;;3.00;3.00;;;;;16.31;71.07;100571.19;5056073;28;45293;-72
2022/10/22 00:46:24;;;;;;;;;2.00;2.00;;;;;16.37;70.95;100584.22;5057352;28;45691;-71
2022/10/22 00:48:51;;;;;;;;;4.00;2.00;;;;;16.36;70.96;100581.66;5056408;28;45513;-72
2022/10/22 00:51:20;;;;;;;;;2.67;2.00;;;;;16.36;70.94;100593.09;5057128;28;45776;-70
2022/10/22 00:53:52;;;;;;;;;2.33;1.00;;;;;16.35;70.89;100594.00;5052291;28;45442;-67
2022/10/22 00:56:19;;;;;;;;;2.00;1.67;;;;;16.30;70.96;100580.00;5054709;28;45403;-72
2022/10/22 00:59:06;;;;;;;;;2.00;2.00;;;;;16.41;70.71;100595.63;5056863;28;46128;-73
2022/10/22 01:01:32;;;;;;;;;3.33;1.67;;;;;16.30;70.53;100586.19;5053074;28;45497;-67
2022/10/22 01:03:58;;;;;;;;;2.67;2.00;;;;;16.43;70.56;100612.31;5053303;28;45580;-71
2022/10/22 01:06:31;;;;;;;;;2.00;2.00;;;;;16.31;70.76;100600.25;5053053;28;45697;-73
2022/10/22 01:09:13;;;;;;;;;3.33;1.00;;;;;16.42;70.48;100614.09;5051559;28;47807;-73
2022/10/22 01:12:02;;;;;;;;;1.33;1.00;;;;;16.37;70.54;100607.16;5052806;28;45452;-73
2022/10/22 01:14:40;;;;;;;;;2.00;2.00;;;;;16.41;70.73;100616.75;5053022;28;45442;-72
2022/10/22 01:17:23;;;;;;;;;2.67;1.67;;;;;16.45;70.41;100619.28;5050993;28;45475;-73
2022/10/22 01:20:26;;;;;;;;;2.67;2.67;;;;;16.42;70.22;100621.13;5052343;28;46170;-74
2022/10/22 01:23:29;;;;;;;;;1.67;1.00;;;;;16.30;70.74;100614.34;5051223;28;45488;-68
2022/10/22 01:26:03;;;;;;;;;2.00;1.33;;;;;16.39;70.80;100627.34;5038428;28;45533;-70
2022/10/22 01:28:47;;;;;;;;;2.33;1.00;;;;;16.36;70.43;100632.72;5047734;28;45509;-69
2022/10/22 01:31:15;;;;;;;;;1.33;1.33;;;;;16.26;70.32;100603.00;5045359;28;46061;-68
2022/10/22 01:33:45;;;;;;;;;0.67;0.67;;;;;16.30;70.39;100617.91;5049436;28;45703;-71
2022/10/22 01:36:13;;;;;;;;;2.00;0.67;;;;;16.42;70.22;100634.34;5045598;28;45528;-70
2022/10/22 01:38:41;;;;;;;;;1.00;1.00;;;;;16.50;70.30;100645.63;5048477;28;45974;-73
2022/10/22 01:41:07;;;;;;;;;1.00;1.00;;;;;16.43;69.97;100626.38;5050774;28;46106;-72
2022/10/22 01:43:33;;;;;;;;;2.00;1.00;;;;;16.59;69.77;100641.91;5054512;28;45569;-72
2022/10/22 01:46:02;;;;;;;;;1.33;1.00;;;;;16.52;69.91;100657.91;5052754;28;45460;-71
2022/10/22 01:48:46;;;;;;;;;2.67;2.00;;;;;16.47;70.00;100653.63;5068946;28;45366;-73
2022/10/22 01:51:58;;;;;;;;;2.00;2.00;;;;;16.50;70.09;100645.63;5052700;28;46636;-72
2022/10/22 01:54:29;;;;;;;;;1.67;1.67;;;;;16.53;69.80;100656.97;5053101;28;45436;-74
2022/10/22 01:57:07;;;;;;;;;2.00;1.00;;;;;16.54;69.73;100658.75;5068773;28;45606;-70
2022/10/22 01:59:39;;;;;;;;;2.00;2.00;;;;;16.53;69.70;100651.69;5053329;28;45381;-71
2022/10/22 02:02:24;;;;;;;;;3.00;1.00;;;;;16.51;69.69;100647.34;5052814;28;45445;-74
2022/10/22 02:05:00;;;;;;;;;1.33;1.33;;;;;16.42;69.40;100629.06;5054900;28;45346;-74
2022/10/22 02:07:31;;;;;;;;;2.00;2.00;;;;;16.47;69.60;100636.00;5052553;28;45484;-74
2022/10/22 02:09:59;;;;;;;;;3.00;2.00;;;;;16.51;69.73;100650.00;5052514;28;45500;-74
2022/10/22 02:12:29;;;;;;;;;1.67;1.33;;;;;16.50;69.71;100654.41;5049843;28;45501;-69
2022/10/22 02:14:57;;;;;;;;;2.00;1.00;;;;;16.48;69.80;100645.66;5051497;28;45718;-70
2022/10/22 02:17:28;;;;;;;;;1.00;1.00;;;;;16.62;69.62;100662.97;5049069;28;45461;-74
2022/10/22 02:20:05;;;;;;;;;3.33;1.00;;;;;16.66;69.42;100664.66;5050196;28;45338;-74
2022/10/22 02:22:31;;;;;;;;;1.00;1.00;;;;;16.48;69.14;100627.16;5042561;28;45744;-71
2022/10/22 02:24:57;;;;;;;;;2.00;1.00;;;;;16.63;69.37;100662.06;5059444;28;45306;-74
2022/10/22 02:27:29;;;;;;;;;1.67;1.67;;;;;16.60;69.17;100656.84;5058921;28;45456;-72
2022/10/22 02:30:00;;;;;;;;;1.67;1.00;;;;;16.61;69.18;100666.50;5048454;28;45480;-68
2022/10/22 02:32:31;;;;;;;;;1.00;1.00;;;;;16.61;69.33;100663.84;5049958;28;46526;-70
2022/10/22 02:34:59;;;;;;;;;4.00;2.00;;;;;16.45;69.68;100648.38;5056403;28;45547;-72
2022/10/22 02:37:26;;;;;;;;;5.00;2.00;;;;;16.45;69.87;100660.72;5056362;28;45287;-73
2022/10/22 02:39:55;;;;;;;;;2.00;2.00;;;;;16.24;69.88;100630.38;5056424;28;45401;-73
2022/10/22 02:42:22;;;;;;;;;1.33;1.33;;;;;16.23;69.83;100641.84;5055622;28;45575;-73
2022/10/22 02:44:47;;;;;;;;;3.00;2.00;;;;;16.36;70.35;100668.88;5055887;28;45615;-73
2022/10/22 02:47:13;;;;;;;;;2.00;2.00;;;;;16.26;70.24;100669.06;5046937;28;45464;-69
2022/10/22 02:49:38;;;;;;;;;3.67;2.00;;;;;16.11;70.35;100672.03;5051791;28;45422;-74
2022/10/22 02:52:04;;;;;;;;;3.00;2.00;;;;;16.08;70.79;100685.31;5056032;28;45619;-75
2022/10/22 02:54:29;;;;;;;;;2.00;1.00;;;;;16.03;71.27;100684.56;5058466;28;45405;-72
2022/10/22 02:56:55;;;;;;;;;1.00;1.00;;;;;16.03;71.07;100684.56;5054148;28;45513;-71
2022/10/22 02:59:21;;;;;;;;;2.00;1.00;;;;;15.86;71.37;100669.94;5056008;28;45292;-73
2022/10/22 03:01:46;;;;;;;;;2.33;2.00;;;;;15.97;71.46;100695.25;5055047;28;45422;-73
2022/10/22 03:04:12;;;;;;;;;4.00;1.00;;;;;15.95;71.28;100695.28;5055817;28;45768;-74
2022/10/22 03:06:37;;;;;;;;;3.00;3.00;;;;;15.93;71.59;100694.44;5053127;28;45490;-70
2022/10/22 03:09:03;;;;;;;;;2.67;2.00;;;;;15.93;71.77;100699.75;5055227;27;45576;-70
2022/10/22 03:11:28;;;;;;;;;2.00;1.00;;;;;15.90;71.54;100689.25;5054947;28;45461;-71
2022/10/22 03:13:54;;;;;;;;;4.00;1.67;;;;;15.94;71.62;100708.53;5057351;28;45239;-74
2022/10/22 03:16:19;;;;;;;;;2.00;2.00;;;;;15.89;71.70;100693.63;5056443;28;45528;-73
2022/10/22 03:19:04;;;;;;;;;;;;;;;;;;;;;
2022/10/22 03:22:04;;;;;;;;;1.00;1.00;;;;;15.93;72.08;100714.72;5052183;28;74975;-72
2022/10/22 03:24:43;;;;;;;;;1.00;1.00;;;;;15.97;71.92;100716.38;5057363;28;45587;-73
2022/10/22 03:27:11;;;;;;;;;3.67;2.00;;;;;15.80;72.02;100685.03;5054046;28;46384;-71
2022/10/22 03:29:39;;;;;;;;;3.00;1.67;;;;;15.89;71.79;100713.91;5055700;28;46046;-74
2022/10/22 03:32:05;;;;;;;;;5.00;2.33;;;;;15.82;72.05;100712.28;5057562;28;46398;-72
2022/10/22 03:34:30;;;;;;;;;2.00;2.00;;;;;15.73;72.24;100697.50;5055529;28;45431;-70
2022/10/22 03:36:59;;;;;;;;;1.33;1.00;;;;;15.90;72.42;100728.88;5054755;28;45792;-73
2022/10/22 03:39:27;;;;;;;;;7.00;2.00;;;;;15.85;72.47;100722.78;5053251;28;45601;-73
2022/10/22 03:41:53;;;;;;;;;4.33;1.00;;;;;15.89;72.25;100725.31;5054513;28;45550;-73
2022/10/22 03:44:20;;;;;;;;;4.33;3.00;;;;;15.99;71.69;100728.69;5053772;28;45808;-74
2022/10/22 03:46:46;;;;;;;;;2.00;2.00;;;;;15.98;71.88;100729.56;5058527;28;45366;-74
2022/10/22 03:49:11;;;;;;;;;2.00;2.00;;;;;15.92;72.09;100724.38;5058804;28;46173;-73
2022/10/22 03:51:37;;;;;;;;;3.00;1.33;;;;;16.01;72.02;100734.78;5054634;28;45502;-69
2022/10/22 03:54:03;;;;;;;;;3.00;2.00;;;;;16.03;71.94;100732.97;5054822;28;45841;-69
2022/10/22 03:56:28;;;;;;;;;3.00;1.00;;;;;15.99;72.06;100741.00;5052395;28;45841;-69
2022/10/22 03:58:59;;;;;;;;;3.00;2.00;;;;;15.96;72.21;100743.72;5047927;28;45450;-74
2022/10/22 04:01:25;;;;;;;;;1.00;1.00;;;;;15.94;72.31;100742.88;5044677;28;45552;-74
2022/10/22 04:03:51;;;;;;;;;5.00;2.00;;;;;15.82;72.40;100738.69;5046922;28;45531;-73
2022/10/22 04:06:17;;;;;;;;;5.00;2.00;;;;;15.79;72.52;100744.91;5049006;28;45367;-71
2022/10/22 04:08:44;;;;;;;;;3.33;1.67;;;;;15.80;72.63;100758.97;5047979;28;45375;-71
2022/10/22 04:11:11;;;;;;;;;3.00;2.00;;;;;15.76;72.82;100752.91;5047040;28;48032;-73
2022/10/22 04:13:37;;;;;;;;;4.00;2.00;;;;;15.65;72.88;100745.13;5042912;28;45593;-69
2022/10/22 04:16:11;;;;;;;;;3.33;2.33;;;;;15.71;73.06;100757.41;5051378;28;45377;-74
2022/10/22 04:18:39;;;;;;;;;1.00;1.00;;;;;15.69;73.24;100767.94;5045909;28;45540;-74
2022/10/22 04:21:05;;;;;;;;;3.00;1.33;;;;;15.73;73.14;100775.84;5055859;28;47317;-75
2022/10/22 04:23:31;;;;;;;;;5.00;2.00;;;;;15.54;73.13;100738.31;5051090;28;45345;-71
2022/10/22 04:25:58;;;;;;;;;4.00;2.00;;;;;15.73;73.08;100767.91;5046892;28;45435;-72
2022/10/22 04:28:24;;;;;;;;;2.33;2.33;;;;;15.69;73.31;100762.66;5045661;28;45342;-73
2022/10/22 04:30:50;;;;;;;;;2.00;1.33;;;;;15.64;73.38;100761.88;5042768;28;45521;-74
2022/10/22 04:33:15;;;;;;;;;3.00;2.00;;;;;15.61;73.07;100772.50;5041471;28;45573;-73
2022/10/22 04:35:41;;;;;;;;;2.00;1.00;;;;;15.62;73.81;100773.38;5048987;28;45452;-68
2022/10/22 04:38:06;;;;;;;;;2.00;2.00;;;;;15.51;73.78;100755.06;5039696;28;45820;-72
2022/10/22 04:40:32;;;;;;;;;1.67;1.67;;;;;15.72;72.95;100784.66;5046132;28;45465;-67
2022/10/22 04:42:59;;;;;;;;;2.33;2.00;;;;;15.79;73.13;100786.28;5040208;27;45414;-70
2022/10/22 04:45:24;;;;;;;;;2.00;2.00;;;;;15.87;73.11;100795.81;5045331;28;45364;-68
2022/10/22 04:47:50;;;;;;;;;2.67;1.00;;;;;15.91;72.69;100799.25;5043107;28;46181;-68
2022/10/22 04:50:16;;;;;;;;;1.00;1.00;;;;;15.90;72.94;100794.91;5041091;28;46529;-66
2022/10/22 04:52:41;;;;;;;;;2.67;1.33;;;;;15.81;72.84;100788.00;5043913;28;45588;-69
2022/10/22 04:55:07;;;;;;;;;2.00;2.00;;;;;15.79;72.92;100788.94;5038576;28;45486;-70
2022/10/22 04:57:33;;;;;;;;;3.33;2.00;;;;;15.80;72.99;100788.91;5046165;28;45557;-67
2022/10/22 04:59:59;;;;;;;;;2.33;2.33;;;;;15.84;73.01;100793.22;5038574;28;45491;-67
2022/10/22 05:02:24;;;;;;;;;2.00;2.00;;;;;15.77;73.23;100785.44;5028106;28;45457;-69
2022/10/22 05:04:50;;;;;;;;;1.33;1.00;;;;;15.81;73.51;100795.94;5052770;28;45656;-73
2022/10/22 05:07:15;;;;;;;;;2.00;2.00;;;;;15.78;73.49;100803.03;5054734;28;45330;-73
2022/10/22 05:09:41;;;;;;;;;4.00;2.00;;;;;15.63;73.32;100786.53;5068990;28;46694;-73
2022/10/22 05:12:06;;;;;;;;;3.67;3.00;;;;;15.67;73.67;100804.06;5053423;28;45455;-73
2022/10/22 05:14:32;;;;;;;;;2.00;1.00;;;;;15.72;73.75;100801.38;5053485;28;45408;-76
2022/10/22 05:16:58;;;;;;;;;2.00;1.00;;;;;15.80;73.49;100804.75;5051785;28;45644;-68
2022/10/22 05:19:29;;;;;;;;;2.00;2.00;;;;;15.83;73.52;100806.47;5053679;28;46116;-74
2022/10/22 05:21:58;;;;;;;;;2.00;2.00;;;;;15.84;73.75;100810.84;5052078;28;45683;-70
2022/10/22 05:24:24;;;;;;;;;1.33;1.33;;;;;15.81;73.30;100816.19;5054382;28;45460;-74
2022/10/22 05:26:54;;;;;;;;;2.00;2.00;;;;;15.80;73.78;100825.91;5058093;28;45445;-73
2022/10/22 05:29:20;;;;;;;;;4.00;2.00;;;;;15.77;73.67;100827.69;5057325;28;45529;-74
2022/10/22 05:31:46;;;;;;;;;2.00;2.00;;;;;15.77;73.62;100825.94;5069825;28;45541;-75
2022/10/22 05:34:12;;;;;;;;;1.00;1.00;;;;;15.78;73.54;100816.22;5068948;27;45887;-74
2022/10/22 05:36:37;;;;;;;;;3.00;2.00;;;;;15.85;73.16;100831.06;5068521;27;45678;-74
2022/10/22 05:39:04;;;;;;;;;2.00;2.00;;;;;15.85;73.16;100829.31;5052910;28;45573;-74
2022/10/22 05:41:29;;;;;;;;;4.33;3.00;;;;;15.75;73.67;100826.84;5070193;28;45430;-74
2022/10/22 05:43:57;;;;;;;;;2.00;2.00;;;;;15.78;73.97;100829.44;5055960;28;45432;-75
2022/10/22 05:46:25;;;;;;;;;5.33;2.00;;;;;15.72;73.31;100826.91;5073227;27;45375;-75
2022/10/22 05:48:52;;;;;;;;;2.00;2.00;;;;;15.69;73.52;100812.84;5055471;28;45704;-74
2022/10/22 05:51:18;;;;;;;;;4.00;2.33;;;;;15.67;74.04;100814.63;5056408;28;45425;-73
2022/10/22 05:53:44;;;;;;;;;2.00;1.00;;;;;15.73;73.80;100828.66;5072170;27;45485;-74
2022/10/22 05:56:13;;;;;;;;;4.33;3.00;;;;;15.61;73.85;100821.78;5056544;28;45521;-74
2022/10/22 05:58:39;;;;;;;;;2.00;2.00;;;;;15.63;73.80;100820.84;5048387;28;47906;-75
2022/10/22 06:01:11;;;;;;;;;4.33;3.00;;;;;15.62;73.95;100831.47;5042260;28;45707;-75
2022/10/22 06:03:37;;;;;;;;;2.00;2.00;;;;;15.56;74.20;100827.13;5046602;28;45507;-74
2022/10/22 06:06:25;;;;;;;;;1.33;1.33;;;;;15.64;74.22;100837.59;5041079;28;45474;-73
2022/10/22 06:08:53;;;;;;;;;3.00;1.67;;;;;15.46;74.32;100829.06;5040153;28;45662;-74
2022/10/22 06:11:21;;;;;;;;;9.00;3.00;;;;;15.48;74.76;100835.19;5040812;28;45551;-73
2022/10/22 06:13:48;;;;;;;;;2.00;2.00;;;;;15.52;74.74;100846.59;5041440;28;45435;-69
2022/10/22 06:16:14;;;;;;;;;5.33;1.67;;;;;15.52;74.78;100848.31;5040166;28;45458;-73
2022/10/22 06:18:40;;;;;;;;;3.33;3.00;;;;;15.45;74.70;100835.25;5049299;28;45391;-75
2022/10/22 06:21:11;;;;;;;;;4.00;2.67;;;;;15.42;74.77;100829.13;5060453;28;45416;-73
2022/10/22 06:23:37;;;;;;;;;4.67;3.33;;;;;15.44;74.90;100845.81;5060316;28;45517;-73
2022/10/22 06:26:04;;;;;;;;;3.00;3.00;;;;;15.50;74.90;100858.06;5059533;28;45502;-73
2022/10/22 06:28:30;;;;;;;;;3.67;3.00;;;;;15.45;75.10;100858.13;5060137;28;46055;-74
2022/10/22 06:31:01;;;;;;;;;3.00;3.00;;;;;15.37;74.96;100852.97;5057675;28;45477;-74
2022/10/22 06:33:28;;;;;;;;;2.00;2.00;;;;;15.48;75.17;100868.63;5070840;28;45683;-74
2022/10/22 06:35:54;;;;;;;;;2.00;2.00;;;;;15.42;75.10;100860.81;5055634;28;45523;-73
2022/10/22 06:38:20;;;;;;;;;3.33;1.67;;;;;15.42;75.53;100874.91;5055762;28;45912;-72
2022/10/22 06:40:45;;;;;;;;;5.00;2.00;;;;;15.43;75.32;100878.41;5055535;28;45483;-72
2022/10/22 06:43:12;;;;;;;;;3.00;3.00;;;;;15.39;75.21;100874.06;5054717;28;45442;-71
2022/10/22 06:45:38;;;;;;;;;4.00;3.33;;;;;15.42;75.19;100876.63;5056254;28;45585;-68
2022/10/22 06:48:04;;;;;;;;;3.33;2.00;;;;;15.36;75.32;100864.44;5059419;28;45445;-69
2022/10/22 06:50:30;;;;;;;;;3.00;3.00;;;;;15.40;75.49;100873.16;5057578;28;45394;-71
2022/10/22 06:52:56;;;;;;;;;5.00;5.00;;;;;15.35;75.22;100881.16;5055039;28;45479;-74
2022/10/22 06:55:22;;;;;;;;;3.33;2.67;;;;;15.37;75.71;100892.53;5055474;28;45445;-74
2022/10/22 06:57:48;;;;;;;;;3.67;3.00;;;;;15.42;75.39;100903.94;5057326;28;45415;-71
2022/10/22 07:00:13;;;;;;;;;5.00;5.00;;;;;15.36;75.62;100898.72;5049679;28;45648;-73
2022/10/22 07:02:39;;;;;;;;;5.67;2.67;;;;;15.32;75.35;100897.03;5045301;28;45464;-73
2022/10/22 07:05:05;;;;;;;;;4.00;3.00;;;;;15.46;75.32;100910.03;5055889;28;45819;-73
2022/10/22 07:07:31;;;;;;;;;2.00;2.00;;;;;15.45;75.35;100913.56;5054610;28;45824;-70
2022/10/22 07:09:56;;;;;;;;;3.00;2.00;;;;;15.53;75.24;100918.72;5070492;28;45466;-70
2022/10/22 07:12:22;;;;;;;;;3.00;2.33;;;;;15.55;75.00;100904.59;5055640;28;45433;-71
2022/10/22 07:14:48;;;;;;;;;3.00;2.00;;;;;15.72;74.45;100930.75;5055780;28;45469;-73
2022/10/22 07:17:13;;;;;;;;;3.00;2.33;;;;;15.77;74.26;100930.69;5058057;28;46156;-73
2022/10/22 07:19:39;;;;;;;;;3.00;3.00;;;;;15.59;73.86;100895.75;5069847;27;45559;-68
2022/10/22 07:22:04;;;;;;;;;3.00;3.00;;;;;15.85;73.65;100928.78;5062974;28;45485;-70
2022/10/22 07:24:30;;;;;;;;;3.67;3.00;;;;;15.94;73.59;100926.00;5047976;28;45548;-67
2022/10/22 07:26:56;;;;;;;;;3.00;3.00;;;;;16.06;73.14;100933.72;5049657;28;46651;-68
2022/10/22 07:29:21;;;;;;;;;3.33;3.33;;;;;16.15;72.65;100937.09;5050100;28;45483;-69
2022/10/22 07:31:47;;;;;;;;;5.67;3.00;;;;;16.29;72.42;100943.00;5050292;28;45401;-74
2022/10/22 07:34:13;;;;;;;;;4.67;3.00;;;;;16.45;72.10;100946.25;5052344;28;45460;-71
2022/10/22 07:36:38;;;;;;;;;3.00;3.00;;;;;16.55;71.20;100945.16;5053325;28;46273;-74
2022/10/22 07:39:04;;;;;;;;;7.33;4.00;;;;;16.59;70.98;100927.47;5071131;27;45322;-72
2022/10/22 20:55:08;;;;;;;;;16.67;13.33;;;;;16.92;76.17;100818.34;5106970;27;46509;-68
2022/10/22 20:57:34;;;;;;;;;11.67;9.33;;;;;17.07;75.75;100829.47;5071342;27;45839;-70
2022/10/22 21:00:00;;;;;;;;;11.67;11.33;;;;;17.03;75.26;100798.69;5087588;27;45996;-70
2022/10/22 21:02:27;;;;;;;;;13.33;13.33;;;;;17.36;74.50;100821.69;5066999;27;45620;-70
2022/10/22 21:04:55;;;;;;;;;12.67;12.00;;;;;17.46;74.19;100814.38;5080107;27;46553;-69
2022/10/22 21:07:20;;;;;;;;;17.00;10.33;;;;;17.46;73.46;100795.84;5090015;27;45411;-70
2022/10/22 21:09:46;;;;;;;;;11.33;9.67;;;;;17.70;72.92;100819.94;5089284;27;45394;-71
2022/10/22 21:12:12;;;;;;;;;8.33;8.00;;;;;17.78;72.62;100821.50;5086499;27;45296;-72
2022/10/22 21:14:38;;;;;;;;;8.00;7.33;;;;;17.83;72.50;100804.66;5087497;27;45535;-72
2022/10/22 21:17:03;;;;;;;;;7.33;6.33;;;;;18.01;71.89;100807.69;5087193;27;45468;-70
2022/10/22 21:19:30;;;;;;;;;10.33;7.33;;;;;18.06;71.53;100791.66;5089667;27;45480;-72
2022/10/22 21:21:56;;;;;;;;;11.67;9.33;;;;;18.04;71.07;100785.50;5092430;27;45358;-72
2022/10/22 21:24:25;;;;;;;;;9.67;9.00;;;;;18.12;70.57;100793.25;5090081;27;46245;-72
2022/10/22 21:26:51;;;;;;;;;9.33;8.33;;;;;18.16;70.30;100789.59;5088018;27;45600;-71
2022/10/22 21:29:19;;;;;;;;;15.33;10.67;;;;;18.18;69.96;100796.59;5067611;27;45630;-73
2022/10/22 21:31:44;;;;;;;;;11.00;9.67;;;;;18.12;69.89;100794.09;5087079;27;45441;-69
2022/10/22 21:34:15;;;;;;;;;8.00;7.67;;;;;18.17;69.87;100808.09;5080338;27;45899;-70
2022/10/22 21:36:43;;;;;;;;;10.33;9.33;;;;;18.06;70.14;100786.34;5067398;27;45461;-68
2022/10/22 21:39:12;;;;;;;;;12.00;10.33;;;;;18.20;69.79;100801.88;5081422;27;45537;-70
2022/10/22 21:41:38;;;;;;;;;12.67;10.00;;;;;18.20;69.96;100792.13;5082496;27;45379;-73
2022/10/22 21:44:04;;;;;;;;;12.00;11.00;;;;;18.12;69.70;100775.56;5085830;27;45526;-69
2022/10/22 21:46:30;;;;;;;;;16.00;12.33;;;;;18.16;69.48;100785.16;5067842;27;45383;-70
2022/10/22 21:49:04;;;;;;;;;12.00;9.33;;;;;18.20;69.51;100788.59;5087978;27;45430;-69
2022/10/22 21:51:32;;;;;;;;;12.67;10.67;;;;;18.19;69.12;100787.72;5082307;27;46094;-71
2022/10/22 21:54:18;;;;;;;;;10.67;9.67;;;;;18.19;69.14;100789.50;5085895;27;46200;-72
2022/10/22 21:56:44;;;;;;;;;12.00;9.00;;;;;18.12;69.41;100785.28;5067649;27;45501;-70
2022/10/22 21:59:11;;;;;;;;;9.33;8.67;;;;;18.04;69.26;100768.75;5070767;27;45856;-70
2022/10/22 22:01:38;;;;;;;;;9.00;8.33;;;;;18.14;69.17;100786.97;5085693;27;45387;-72
2022/10/22 22:04:06;;;;;;;;;11.00;9.00;;;;;17.90;69.37;100742.63;5085255;27;46304;-71
2022/10/22 22:06:33;;;;;;;;;7.00;6.00;;;;;18.10;69.25;100765.91;5069628;27;45378;-72
2022/10/22 22:09:00;;;;;;;;;5.33;5.33;;;;;18.08;69.53;100770.38;5049341;28;46035;-72
2022/10/22 22:11:29;;;;;;;;;9.33;6.00;;;;;18.13;69.25;100764.06;5072213;28;45501;-71
2022/10/22 22:13:56;;;;;;;;;7.33;7.33;;;;;18.21;69.23;100780.59;5051069;28;46255;-69
2022/10/22 22:16:25;;;;;;;;;9.00;8.00;;;;;18.08;69.14;100765.97;5070606;28;45512;-68
2022/10/22 22:18:51;;;;;;;;;6.00;6.00;;;;;18.06;69.03;100757.19;5066109;28;45510;-72
2022/10/22 22:21:18;;;;;;;;;8.33;7.67;;;;;18.03;68.74;100741.34;5063024;27;45536;-71
2022/10/22 22:23:46;;;;;;;;;7.33;6.00;;;;;18.00;69.07;100738.81;5067434;28;46666;-71
2022/10/22 22:26:14;;;;;;;;;9.00;7.67;;;;;18.07;68.98;100758.06;5070402;28;45489;-73
2022/10/22 22:28:41;;;;;;;;;9.33;6.67;;;;;17.94;68.95;100742.50;5066232;28;45891;-72
2022/10/22 22:31:12;;;;;;;;;10.00;6.00;;;;;17.89;69.20;100746.19;5073578;27;45469;-70
2022/10/22 22:33:38;;;;;;;;;9.00;6.33;;;;;17.79;69.50;100719.91;5071451;28;47229;-71
2022/10/22 22:36:03;;;;;;;;;8.67;8.67;;;;;17.89;69.30;100743.53;5073765;28;45491;-71
2022/10/22 22:38:29;;;;;;;;;6.00;5.67;;;;;17.86;69.47;100747.13;5053371;28;45665;-71
2022/10/22 22:40:59;;;;;;;;;11.00;7.33;;;;;17.87;69.51;100743.59;5066115;28;46183;-68
2022/10/22 22:43:24;;;;;;;;;5.33;5.33;;;;;17.86;69.31;100744.50;5055600;28;46872;-72
2022/10/22 22:46:10;;;;;;;;;5.67;5.67;;;;;17.87;69.46;100735.66;5075754;28;45436;-69
2022/10/22 22:48:36;;;;;;;;;4.00;4.00;;;;;17.77;69.02;100720.88;5072484;27;45541;-70
2022/10/22 22:51:04;;;;;;;;;8.33;7.33;;;;;17.87;69.35;100743.59;5054605;28;45455;-69
2022/10/22 22:53:31;;;;;;;;;9.00;7.33;;;;;17.88;69.52;100741.81;5052893;28;47796;-71
2022/10/22 22:56:09;;;;;;;;;11.00;8.33;;;;;17.90;69.36;100732.91;5072034;28;45548;-71
2022/10/22 22:58:37;;;;;;;;;8.33;7.00;;;;;17.96;69.23;100731.84;5054131;28;45555;-69
2022/10/22 23:01:24;;;;;;;;;6.00;6.00;;;;;17.97;69.25;100730.94;5073121;28;45430;-68
2022/10/22 23:03:56;;;;;;;;;5.67;4.33;;;;;17.96;68.96;100723.91;5048613;28;47806;-71
2022/10/22 23:06:24;;;;;;;;;4.00;4.00;;;;;17.96;68.92;100705.34;5075673;28;45543;-71
2022/10/22 23:08:50;;;;;;;;;3.67;3.67;;;;;18.10;68.37;100711.09;5073111;28;45749;-71
2022/10/22 23:11:24;;;;;;;;;4.00;3.00;;;;;18.12;68.40;100709.28;5071667;28;45422;-69
2022/10/22 23:13:53;;;;;;;;;4.00;4.00;;;;;18.16;68.16;100710.06;5072280;28;46240;-72
2022/10/22 23:16:30;;;;;;;;;6.00;5.00;;;;;18.17;68.11;100699.41;5070476;28;45720;-72
2022/10/22 23:18:57;;;;;;;;;6.00;4.00;;;;;18.17;68.14;100694.09;5068538;28;45900;-73
2022/10/22 23:21:26;;;;;;;;;8.00;5.00;;;;;18.14;68.08;100694.22;5070816;28;45418;-73
2022/10/22 23:24:03;;;;;;;;;5.67;5.00;;;;;18.09;68.46;100688.19;5057727;28;46870;-71
2022/10/22 23:26:31;;;;;;;;;5.67;5.00;;;;;18.03;68.28;100680.41;5053110;28;45636;-72
2022/10/22 23:29:02;;;;;;;;;7.33;6.00;;;;;17.98;68.52;100679.69;5072753;28;45567;-70
2022/10/22 23:31:31;;;;;;;;;6.00;4.00;;;;;17.95;68.66;100675.34;5057957;27;45361;-72
2022/10/22 23:34:00;;;;;;;;;4.33;4.00;;;;;17.85;69.10;100668.59;5076719;28;45464;-71
2022/10/22 23:36:26;;;;;;;;;6.00;5.67;;;;;17.87;69.43;100673.81;5055953;28;45831;-72
2022/10/22 23:38:51;;;;;;;;;5.33;5.33;;;;;17.85;69.03;100657.97;5073264;28;45840;-70
2022/10/22 23:41:17;;;;;;;;;4.67;3.67;;;;;17.98;68.47;100669.94;5071271;28;45434;-70
2022/10/22 23:43:43;;;;;;;;;5.33;4.00;;;;;17.93;68.72;100660.41;5072281;28;45534;-71
2022/10/22 23:46:10;;;;;;;;;6.33;5.00;;;;;18.01;68.53;100666.34;5057086;28;46438;-72
2022/10/22 23:48:38;;;;;;;;;5.00;4.00;;;;;17.95;68.72;100663.88;5076058;28;45441;-72
2022/10/22 23:51:10;;;;;;;;;5.00;3.33;;;;;17.91;68.69;100655.13;5075512;28;45518;-72
2022/10/22 23:53:36;;;;;;;;;4.33;4.33;;;;;17.86;68.58;100649.09;5052662;28;47673;-72
2022/10/22 23:56:08;;;;;;;;;7.00;3.33;;;;;17.74;68.84;100620.31;5071642;28;45477;-69
2022/10/22 23:58:34;;;;;;;;;3.00;3.00;;;;;17.88;68.94;100641.13;5071472;28;45528;-71
